Time;durP1;ratioP1;P1;durP2;ratioP2;P2;SDS_P1;SDS_P2;PMS_P1;PMS_P2;Temp;Humidity;BMP_temperature;BMP_pressure;BME280_temperature;BME280_humidity;BME280_pressure;Samples;Min_cycle;Max_cycle;Signal;HPM_P1;HPM_P2
2023/12/02 00:02:25;;;;;;;7.97;5.70;;;;;;;-0.41;66.82;99765.66;4918929;29;20682;-71
2023/12/02 00:05:50;;;;;;;7.82;5.32;;;;;;;-0.44;66.33;99769.13;4916737;29;20128;-72
2023/12/02 00:09:14;;;;;;;8.65;6.00;;;;;;;-0.33;66.12;99768.91;4918946;29;20048;-72
2023/12/02 00:12:21;;;;;;;7.80;5.05;;;;;;;-0.17;65.93;99774.56;4916213;29;20525;-72
2023/12/02 00:15:27;;;;;;;8.43;5.18;;;;;;;-0.16;66.92;99765.97;4904437;29;20082;-73
2023/12/02 00:18:39;;;;;;;9.55;5.93;;;;;;;-0.35;67.64;99765.50;4917214;29;20068;-72
2023/12/02 00:21:45;;;;;;;9.18;5.35;;;;;;;-0.56;67.73;99767.63;4901645;29;20063;-72
2023/12/02 00:25:30;;;;;;;7.35;4.93;;;;;;;-0.40;66.97;99763.03;4905441;29;20090;-73
2023/12/02 00:28:36;;;;;;;6.43;4.40;;;;;;;-0.12;66.36;99768.47;4917163;29;20063;-74
2023/12/02 00:31:42;;;;;;;7.75;4.93;;;;;;;-0.02;65.37;99771.69;4907597;29;20070;-73
2023/12/02 00:35:03;;;;;;;7.78;4.95;;;;;;;-0.03;65.71;99757.16;4912216;29;20566;-73
2023/12/02 00:38:32;;;;;;;7.45;5.53;;;;;;;-0.06;66.43;99759.81;4907725;29;20091;-73
2023/12/02 00:41:49;;;;;;;12.80;7.63;;;;;;;0.05;67.18;99757.00;4901238;29;20095;-73
2023/12/02 00:45:10;;;;;;;7.82;5.68;;;;;;;0.10;66.51;99761.16;4899678;29;20107;-73
2023/12/02 00:48:18;;;;;;;8.73;5.50;;;;;;;0.13;66.85;99763.66;4899649;29;20091;-73
2023/12/02 00:51:41;;;;;;;7.22;5.05;;;;;;;0.18;66.39;99766.97;4914732;29;20054;-73
2023/12/02 00:55:06;;;;;;;10.50;5.13;;;;;;;0.01;66.19;99774.19;4914810;29;20066;-73
2023/12/02 00:58:25;;;;;;;7.13;4.70;;;;;;;-0.13;66.66;99776.19;4900206;29;20112;-73
2023/12/02 01:01:37;;;;;;;11.60;7.85;;;;;;;-0.38;66.46;99781.84;4906536;29;20043;-73
2023/12/02 01:05:07;;;;;;;6.47;4.68;;;;;;;-0.53;68.55;99774.44;4908082;29;20047;-73
2023/12/02 01:08:35;;;;;;;5.90;4.57;;;;;;;-0.30;67.55;99781.69;4918188;29;20533;-73
2023/12/02 01:12:02;;;;;;;6.60;4.78;;;;;;;-0.20;67.12;99784.91;4916226;29;20055;-73
2023/12/02 01:15:26;;;;;;;7.30;5.35;;;;;;;-0.19;67.34;99781.47;4916145;29;20054;-72
2023/12/02 01:18:52;;;;;;;9.57;5.32;;;;;;;-0.43;65.91;99793.91;4916043;29;20043;-72
2023/12/02 01:22:15;;;;;;;9.35;5.45;;;;;;;-0.33;66.22;99800.56;4916291;29;20130;-71
2023/12/02 01:25:42;;;;;;;8.13;4.93;;;;;;;-0.31;66.16;99803.97;4916701;29;20050;-72
2023/12/02 01:29:07;;;;;;;7.80;4.53;;;;;;;-0.09;65.21;99803.56;4917796;29;20047;-72
2023/12/02 01:32:13;;;;;;;7.00;4.43;;;;;;;-0.27;64.76;99809.88;4917725;29;20050;-72
2023/12/02 01:35:32;;;;;;;7.32;4.82;;;;;;;-0.39;65.88;99808.38;4905939;29;20043;-72
2023/12/02 01:38:57;;;;;;;8.15;5.25;;;;;;;-0.59;66.72;99813.06;4917510;29;20136;-72
2023/12/02 01:42:20;;;;;;;5.72;4.10;;;;;;;-0.34;65.39;99822.00;4917552;29;20152;-71
2023/12/02 01:45:42;;;;;;;6.88;4.68;;;;;;;-0.51;66.43;99827.47;4917733;29;20115;-72
2023/12/02 01:49:05;;;;;;;7.43;4.43;;;;;;;-0.37;66.05;99821.22;4917417;29;20516;-71
2023/12/02 01:52:25;;;;;;;5.57;3.67;;;;;;;-0.30;66.00;99826.19;4917474;29;20054;-71
2023/12/02 01:55:52;;;;;;;6.65;4.45;;;;;;;-0.28;66.00;99829.59;4917215;29;20051;-71
2023/12/02 01:59:22;;;;;;;7.80;4.78;;;;;;;-0.46;66.54;99829.94;4917141;29;20083;-72
2023/12/02 02:02:38;;;;;;;7.03;4.40;;;;;;;-0.59;66.50;99842.16;4905747;29;20187;-72
2023/12/02 02:05:55;;;;;;;6.43;4.47;;;;;;;-0.38;65.66;99847.75;4917195;29;20058;-72
2023/12/02 02:09:22;;;;;;;8.35;4.47;;;;;;;-0.35;66.54;99842.56;4917078;29;20176;-72
2023/12/02 02:12:52;;;;;;;7.60;4.18;;;;;;;-0.31;65.72;99839.94;4917026;29;20054;-72
2023/12/02 02:16:20;;;;;;;9.48;5.25;;;;;;;-0.25;66.00;99838.97;4917017;29;20434;-72
2023/12/02 02:19:45;;;;;;;6.80;4.82;;;;;;;-0.35;66.67;99848.56;4897991;29;20047;-72
2023/12/02 02:22:59;;;;;;;8.73;4.80;;;;;;;-0.81;65.51;99839.09;4897839;29;20051;-72
2023/12/02 02:26:19;;;;;;;6.90;4.60;;;;;;;-0.59;66.52;99842.16;4886588;29;20562;-72
2023/12/02 02:29:50;;;;;;;7.50;5.20;;;;;;;-0.67;66.87;99844.03;4897834;29;20092;-72
2023/12/02 02:33:22;;;;;;;8.02;5.00;;;;;;;-0.45;67.01;99839.31;4897833;29;20104;-72
2023/12/02 02:36:47;;;;;;;6.65;4.47;;;;;;;-0.89;67.47;99840.97;4897774;29;20056;-72
2023/12/02 02:40:14;;;;;;;6.97;4.38;;;;;;;-0.68;67.54;99846.59;4897750;29;20589;-73
2023/12/02 02:43:41;;;;;;;7.18;4.38;;;;;;;-1.04;67.97;99848.91;4897819;29;20132;-72
2023/12/02 02:47:12;;;;;;;7.25;4.90;;;;;;;-1.10;68.88;99841.31;4897405;29;20522;-72
2023/12/02 02:50:34;;;;;;;6.15;4.30;;;;;;;-0.83;68.21;99856.25;4897706;29;20111;-72
2023/12/02 02:54:05;;;;;;;6.93;4.47;;;;;;;-0.77;67.03;99850.16;4897592;29;20435;-72
2023/12/02 02:57:29;;;;;;;5.75;4.10;;;;;;;-0.69;67.43;99847.47;4897654;29;20066;-72
2023/12/02 03:01:01;;;;;;;6.53;4.40;;;;;;;-1.08;68.94;99849.84;4897520;29;20079;-72
2023/12/02 03:04:25;;;;;;;5.88;4.07;;;;;;;-0.73;68.33;99852.66;4897656;29;20132;-72
2023/12/02 03:07:55;;;;;;;6.18;4.30;;;;;;;-0.84;68.75;99849.41;4900978;29;20051;-72
2023/12/02 03:11:25;;;;;;;6.93;4.40;;;;;;;-0.88;67.87;99852.06;4901421;29;20104;-72
2023/12/02 03:14:55;;;;;;;6.47;4.00;;;;;;;-0.58;67.01;99848.13;4901035;29;20478;-72
2023/12/02 03:18:25;;;;;;;5.75;3.83;;;;;;;-0.43;67.23;99857.28;4915801;29;20067;-72
2023/12/02 03:21:55;;;;;;;6.93;3.85;;;;;;;-0.48;67.04;99858.22;4920365;29;20100;-72
2023/12/02 03:25:19;;;;;;;5.90;4.32;;;;;;;-0.61;66.63;99846.44;4919983;29;20054;-72
2023/12/02 03:28:40;;;;;;;7.10;3.95;;;;;;;-0.71;66.42;99853.47;4920027;29;20054;-72
2023/12/02 03:32:06;;;;;;;7.13;4.00;;;;;;;-0.83;67.76;99845.13;4919889;29;20589;-72
2023/12/02 03:35:33;;;;;;;6.50;4.22;;;;;;;-0.60;67.84;99842.19;4919832;29;20051;-72
2023/12/02 03:39:06;;;;;;;6.45;4.03;;;;;;;-0.43;66.43;99839.31;4919772;29;20055;-71
2023/12/02 03:42:37;;;;;;;6.05;4.43;;;;;;;-0.44;66.08;99847.91;4919802;29;20063;-72
2023/12/02 03:45:59;;;;;;;5.43;3.42;;;;;;;-0.51;66.21;99853.16;4919649;29;20070;-72
2023/12/02 03:49:23;;;;;;;5.38;3.30;;;;;;;-0.59;66.25;99860.13;4919949;29;20051;-72
2023/12/02 03:52:49;;;;;;;4.82;3.53;;;;;;;-0.65;66.90;99852.53;4919607;29;20051;-72
2023/12/02 03:56:20;;;;;;;3.83;2.70;;;;;;;-0.45;66.61;99859.88;4919701;29;20234;-72
2023/12/02 03:59:49;;;;;;;7.90;4.05;;;;;;;-0.43;66.62;99862.44;4919337;29;20087;-72
2023/12/02 04:03:06;;;;;;;5.57;3.88;;;;;;;-0.52;67.26;99861.69;4919392;29;20055;-71
2023/12/02 04:06:26;;;;;;;4.75;3.00;;;;;;;-0.58;66.99;99876.38;4919443;29;20094;-72
2023/12/02 04:09:50;;;;;;;6.40;3.50;;;;;;;-0.73;66.73;99887.75;4919226;29;20047;-72
2023/12/02 04:13:11;;;;;;;5.57;3.35;;;;;;;-0.53;66.53;99888.25;4919207;29;20570;-72
2023/12/02 04:16:29;;;;;;;6.70;3.42;;;;;;;-1.01;67.30;99898.47;4918858;29;20168;-72
2023/12/02 04:19:55;;;;;;;6.05;2.90;;;;;;;-1.40;68.81;99899.88;4919008;29;20079;-72
2023/12/02 04:23:26;;;;;;;6.00;3.35;;;;;;;-0.90;68.13;99916.25;4919078;29;20098;-72
2023/12/02 04:26:45;;;;;;;4.68;3.03;;;;;;;-0.69;67.44;99919.38;4918867;29;20043;-71
2023/12/02 04:29:52;;;;;;;6.90;5.53;;;;;;;-0.57;67.43;99925.16;4919148;29;20043;-72
2023/12/02 04:32:57;;;;;;;5.47;3.85;;;;;;;-0.51;66.76;99930.19;4918707;29;20590;-72
2023/12/02 04:36:04;;;;;;;6.38;3.60;;;;;;;-0.80;67.47;99922.09;4907442;29;20046;-71
2023/12/02 04:39:26;;;;;;;7.18;5.07;;;;;;;-0.76;67.83;99924.59;4918711;29;20111;-71
2023/12/02 04:42:42;;;;;;;6.75;4.22;;;;;;;-0.62;66.98;99926.94;4918963;29;20163;-72
2023/12/02 04:45:49;;;;;;;4.45;2.78;;;;;;;-0.64;66.63;99925.25;4918623;29;20418;-72
2023/12/02 04:49:05;;;;;;;5.28;3.17;;;;;;;-0.52;66.71;99922.50;4918596;29;20493;-72
2023/12/02 04:52:31;;;;;;;4.55;3.15;;;;;;;-0.56;66.60;99934.53;4918559;29;20071;-77
2023/12/02 04:55:52;;;;;;;7.22;4.13;;;;;;;-0.39;66.72;99934.25;4918697;29;20411;-74
2023/12/02 04:59:08;;;;;;;4.70;3.05;;;;;;;-0.40;66.12;99929.16;4918584;29;20059;-75
2023/12/02 05:02:35;;;;;;;5.00;3.40;;;;;;;-0.56;66.50;99933.69;4918360;29;20103;-75
2023/12/02 05:06:04;;;;;;;5.40;3.78;;;;;;;-0.61;66.56;99938.03;4918265;29;20050;-72
2023/12/02 05:09:23;;;;;;;5.35;3.30;;;;;;;-0.56;66.46;99938.84;4918220;29;20589;-72
2023/12/02 05:12:42;;;;;;;6.47;3.70;;;;;;;-0.63;66.88;99944.94;4918215;29;20524;-71
2023/12/02 05:16:02;;;;;;;5.20;3.70;;;;;;;-1.03;66.93;99946.38;4917973;29;20055;-72
2023/12/02 05:19:17;;;;;;;6.38;3.92;;;;;;;-0.97;67.41;99945.44;4917911;29;20058;-70
2023/12/02 05:22:30;;;;;;;5.65;3.60;;;;;;;-1.01;67.25;99954.06;4917429;29;20123;-72
2023/12/02 05:25:36;;;;;;;5.13;3.67;;;;;;;-0.89;68.10;99961.59;4905761;29;20103;-73
2023/12/02 05:28:48;;;;;;;5.05;3.42;;;;;;;-1.44;68.53;99960.59;4917019;29;20055;-69
2023/12/02 05:32:08;;;;;;;6.53;3.90;;;;;;;-1.44;68.93;99962.31;4917632;29;20505;-69
2023/12/02 05:35:25;;;;;;;5.10;3.70;;;;;;;-1.46;68.86;99966.63;4917718;29;20051;-70
2023/12/02 05:38:34;;;;;;;5.93;3.97;;;;;;;-1.35;68.55;99969.91;4917062;29;20050;-70
2023/12/02 05:41:42;;;;;;;5.38;3.45;;;;;;;-1.75;68.40;99980.63;4916993;29;20035;-70
2023/12/02 05:44:54;;;;;;;6.30;3.90;;;;;;;-1.37;67.67;99970.78;4916679;29;20142;-73
2023/12/02 05:48:02;;;;;;;4.85;3.38;;;;;;;-1.97;69.41;99984.28;4905817;29;20471;-69
2023/12/02 05:51:07;;;;;;;5.28;3.60;;;;;;;-1.47;68.53;99990.56;4917704;29;20047;-71
2023/12/02 05:54:17;;;;;;;12.85;7.20;;;;;;;-1.36;67.42;99991.28;4917680;29;20505;-71
2023/12/02 05:57:37;;;;;;;18.27;10.32;;;;;;;-1.43;67.85;99995.66;4917411;29;20051;-71
2023/12/02 06:00:47;;;;;;;27.27;14.82;;;;;;;-1.23;67.21;100005.66;4917193;29;20071;-70
2023/12/02 06:03:51;;;;;;;36.63;19.52;;;;;;;-1.58;68.50;100005.22;4910323;29;20047;-70
2023/12/02 06:06:59;;;;;;;34.78;17.33;;;;;;;-2.09;69.16;100010.00;4898284;29;20111;-71
2023/12/02 06:10:07;;;;;;;32.08;16.13;;;;;;;-2.05;69.67;100011.66;4898038;29;20099;-71
2023/12/02 06:13:14;;;;;;;15.43;8.18;;;;;;;-2.17;69.53;100021.19;4898226;29;20084;-70
2023/12/02 06:16:19;;;;;;;11.93;7.13;;;;;;;-1.98;68.62;100018.44;4898037;29;20435;-70
2023/12/02 06:19:30;;;;;;;8.18;5.07;;;;;;;-1.63;68.50;100020.63;4903688;29;20091;-71
2023/12/02 06:22:33;;;;;;;7.90;4.72;;;;;;;-2.04;68.12;100031.28;4892244;29;20136;-74
2023/12/02 06:25:39;;;;;;;8.10;5.55;;;;;;;-2.06;68.59;100039.00;4898041;29;20073;-72
2023/12/02 06:28:42;;;;;;;8.02;4.88;;;;;;;-2.44;68.91;100044.44;4897971;29;20095;-73
2023/12/02 06:31:53;;;;;;;8.23;5.20;;;;;;;-2.44;69.15;100044.44;4897941;29;20419;-74
2023/12/02 06:34:59;;;;;;;9.75;6.85;;;;;;;-2.28;68.82;100051.13;4897849;29;20120;-73
2023/12/02 06:38:10;;;;;;;7.90;5.30;;;;;;;-2.39;68.14;100063.19;4897696;29;20051;-72
2023/12/02 06:41:16;;;;;;;10.82;7.28;;;;;;;-2.17;67.95;100069.84;4902719;29;20047;-75
2023/12/02 06:44:38;;;;;;;19.55;10.57;;;;;;;-1.98;68.25;100064.53;4903602;29;20051;-70
2023/12/02 06:47:44;;;;;;;6.22;4.65;;;;;;;-1.70;66.95;100070.28;4904611;29;20111;-73
2023/12/02 06:50:48;;;;;;;8.65;4.85;;;;;;;-2.03;66.01;100074.84;4908303;29;20042;-73
2023/12/02 06:53:53;;;;;;;7.63;4.15;;;;;;;-2.43;67.08;100072.56;4886079;29;20110;-74
2023/12/02 06:56:57;;;;;;;10.43;6.55;;;;;;;-2.12;66.91;100083.44;4902615;29;20055;-75
2023/12/02 07:00:10;;;;;;;11.23;7.70;;;;;;;-1.89;66.88;100095.22;4899437;29;20051;-75
2023/12/02 07:03:22;;;;;;;6.57;5.13;;;;;;;-1.60;66.03;100081.28;4902725;29;20605;-74
2023/12/02 07:06:27;;;;;;;61.28;33.90;;;;;;;-2.14;66.06;100085.19;4890510;29;20071;-77
2023/12/02 07:09:31;;;;;;;69.55;37.97;;;;;;;-1.81;66.01;100098.59;4905360;29;20124;-74
2023/12/02 07:12:44;;;;;;;11.75;7.88;;;;;;;-1.58;66.34;100115.47;4904812;29;20071;-71
2023/12/02 07:15:50;;;;;;;8.88;5.55;;;;;;;-2.18;65.98;100111.66;4904172;29;20128;-73
2023/12/02 07:19:00;;;;;;;7.93;4.47;;;;;;;-2.22;66.79;100109.16;4904216;29;20080;-71
2023/12/02 07:22:06;;;;;;;9.27;5.53;;;;;;;-2.36;67.35;100114.38;4903973;29;20055;-73
2023/12/02 07:25:12;;;;;;;14.05;8.70;;;;;;;-2.29;67.46;100126.28;4893244;29;20051;-74
2023/12/02 07:28:19;;;;;;;17.02;9.70;;;;;;;-2.07;66.14;100124.41;4903885;29;20121;-72
2023/12/02 07:31:24;;;;;;;12.18;5.70;;;;;;;-1.96;66.25;100121.75;4882304;29;20140;-72
2023/12/02 07:34:33;;;;;;;6.22;4.32;;;;;;;-1.94;65.18;100120.06;4893439;29;20125;-72
2023/12/02 07:37:40;;;;;;;7.70;4.82;;;;;;;-1.64;65.35;100131.75;4886462;29;20455;-73
2023/12/02 07:40:45;;;;;;;6.88;4.80;;;;;;;-1.50;65.18;100129.03;4882148;29;20514;-74
2023/12/02 07:43:49;;;;;;;5.85;4.00;;;;;;;-1.57;65.63;100137.66;4915190;29;20054;-72
2023/12/02 07:46:53;;;;;;;5.63;3.40;;;;;;;-1.40;63.98;100135.81;4873871;29;20128;-72
2023/12/02 07:49:56;;;;;;;19.38;10.10;;;;;;;-1.33;64.09;100144.28;4903637;29;20104;-72
2023/12/02 07:52:59;;;;;;;30.35;13.50;;;;;;;-1.71;64.40;100156.59;4916284;29;20047;-71
2023/12/02 07:56:08;;;;;;;7.88;4.10;;;;;;;-1.92;65.26;100159.31;4918257;29;20067;-72
2023/12/02 07:59:12;;;;;;;12.18;6.65;;;;;;;-1.77;65.64;100166.88;4904509;29;20549;-72
2023/12/02 08:02:16;;;;;;;19.88;11.02;;;;;;;-1.63;65.65;100179.59;4903783;29;20058;-72
2023/12/02 08:05:20;;;;;;;20.65;10.38;;;;;;;-1.33;65.08;100186.19;4908892;29;20059;-72
2023/12/02 08:08:25;;;;;;;;;;;;;;;-1.29;64.95;100187.84;4910961;29;20059;-72
2023/12/02 08:11:32;;;;;;;8.30;4.75;;;;;;;-1.08;64.13;100188.53;4899650;29;19922;-73
2023/12/02 08:14:36;;;;;;;7.25;4.25;;;;;;;-1.27;64.63;100198.09;4918401;29;20521;-71
2023/12/02 08:17:44;;;;;;;6.55;4.32;;;;;;;-1.19;64.22;100202.28;4916814;29;20063;-68
2023/12/02 08:20:49;;;;;;;6.65;4.38;;;;;;;-1.29;66.45;100199.81;4937209;29;20146;-71
2023/12/02 08:23:53;;;;;;;6.95;4.70;;;;;;;-1.13;65.08;100205.66;4916844;29;20051;-70
2023/12/02 08:26:58;;;;;;;8.57;4.72;;;;;;;-1.33;65.46;100206.69;4916518;29;20047;-71
2023/12/02 08:30:05;;;;;;;7.18;4.55;;;;;;;-1.32;64.13;100202.41;4915942;29;20131;-70
2023/12/02 08:33:09;;;;;;;7.07;4.43;;;;;;;-1.15;64.67;100197.13;4916977;29;20051;-71
2023/12/02 08:36:13;;;;;;;9.55;5.85;;;;;;;-1.68;63.98;100202.69;4911751;29;20131;-71
2023/12/02 08:39:17;;;;;;;9.15;6.35;;;;;;;-1.26;63.68;100195.50;4916319;29;20051;-72
2023/12/02 08:42:21;;;;;;;;;;;;;;;-1.65;63.93;100206.97;4916642;29;20067;-72
2023/12/02 08:45:26;;;;;;;8.32;4.10;;;;;;;-1.42;63.93;100199.06;4916255;29;19943;-73
2023/12/02 08:48:35;;;;;;;7.07;4.30;;;;;;;-1.37;62.61;100207.59;4916980;29;20096;-72
2023/12/02 08:51:39;;;;;;;6.63;4.82;;;;;;;-1.37;63.96;100207.59;4915329;29;20169;-72
2023/12/02 08:54:42;;;;;;;6.82;4.63;;;;;;;-1.40;64.24;100217.88;4905149;29;20043;-72
2023/12/02 08:57:49;;;;;;;5.85;4.25;;;;;;;-1.76;64.82;100219.84;4916478;29;20179;-72
2023/12/02 09:00:53;;;;;;;8.63;4.32;;;;;;;-1.46;64.24;100229.03;4906767;29;20419;-72
2023/12/02 09:03:57;;;;;;;7.55;5.57;;;;;;;-1.37;63.82;100222.97;4916772;29;20050;-73
2023/12/02 09:07:01;;;;;;;5.95;4.38;;;;;;;-1.44;65.26;100234.13;4904592;29;20054;-72
2023/12/02 09:10:05;;;;;;;6.90;4.57;;;;;;;-1.37;65.11;100234.94;4909612;29;20062;-73
2023/12/02 09:13:35;;;;;;;6.50;4.57;;;;;;;-1.70;64.82;100230.06;4897801;29;20048;-73
2023/12/02 09:16:46;;;;;;;8.75;5.93;;;;;;;-1.29;64.31;100231.44;4905227;29;20103;-73
2023/12/02 09:19:55;;;;;;;10.00;6.82;;;;;;;-1.15;63.58;100225.34;4916086;29;20489;-72
2023/12/02 09:23:02;;;;;;;11.13;5.63;;;;;;;-1.31;64.78;100233.19;4915762;29;20072;-72
2023/12/02 09:26:25;;;;;;;7.47;5.28;;;;;;;-1.22;64.87;100240.78;4916127;29;20195;-72
2023/12/02 09:29:34;;;;;;;9.48;6.25;;;;;;;-1.03;63.79;100238.06;4916142;29;20047;-72
2023/12/02 09:32:48;;;;;;;7.82;5.53;;;;;;;-0.97;63.19;100238.00;4915944;29;20112;-72
2023/12/02 09:36:03;;;;;;;10.20;6.30;;;;;;;-0.97;62.93;100243.97;4915940;29;20131;-72
2023/12/02 09:39:08;;;;;;;14.82;10.07;;;;;;;-0.80;63.00;100245.53;4916254;29;20115;-72
2023/12/02 09:42:12;;;;;;;12.30;9.88;;;;;;;-0.67;62.97;100253.94;4916089;29;20542;-72
2023/12/02 09:45:15;;;;;;;;;;;;;;;-0.57;62.78;100258.16;4904512;29;20051;-71
2023/12/02 09:48:24;;;;;;;10.15;6.82;;;;;;;-0.62;63.77;100252.19;4916133;29;19937;-70
2023/12/02 09:51:54;;;;;;;56.03;33.95;;;;;;;-0.79;63.72;100253.22;4915746;29;20047;-70
2023/12/02 09:55:26;;;;;;;9.52;6.80;;;;;;;-0.89;63.48;100251.63;4915903;29;20131;-73
2023/12/02 09:58:43;;;;;;;9.02;6.60;;;;;;;-0.84;63.48;100249.84;4916027;29;20067;-74
2023/12/02 10:02:08;;;;;;;15.07;10.15;;;;;;;-0.65;63.38;100252.22;4915660;29;20120;-70
2023/12/02 10:05:13;;;;;;;11.70;8.35;;;;;;;-1.02;64.54;100253.47;4904125;29;20162;-73
2023/12/02 10:08:41;;;;;;;11.95;7.68;;;;;;;-0.74;65.12;100256.56;4915463;29;20051;-72
2023/12/02 10:11:57;;;;;;;8.60;5.95;;;;;;;-0.66;64.16;100259.09;4900979;29;20096;-70
2023/12/02 10:15:05;;;;;;;8.00;6.05;;;;;;;-0.87;64.87;100269.56;4914559;29;20062;-71
2023/12/02 10:18:21;;;;;;;8.20;6.10;;;;;;;-1.20;66.67;100272.41;4915140;29;20066;-71
2023/12/02 10:21:38;;;;;;;9.38;6.95;;;;;;;-1.20;66.69;100272.41;4915161;29;20390;-70
2023/12/02 10:25:16;;;;;;;9.70;7.43;;;;;;;-0.87;66.02;100270.41;4915266;29;20111;-70
2023/12/02 10:28:36;;;;;;;10.57;7.53;;;;;;;-0.53;64.77;100275.22;4915550;29;20103;-75
2023/12/02 10:32:19;;;;;;;9.38;6.93;;;;;;;-0.48;64.14;100268.28;4913863;29;20073;-75
2023/12/02 10:35:35;;;;;;;10.77;7.53;;;;;;;-0.54;64.76;100261.53;4895895;29;20067;-75
2023/12/02 10:39:05;;;;;;;9.77;6.90;;;;;;;-0.62;65.55;100257.31;4913147;29;20083;-76
2023/12/02 10:42:29;;;;;;;9.88;6.93;;;;;;;-0.56;64.80;100254.69;4902695;29;20510;-75
2023/12/02 10:45:36;;;;;;;14.00;10.97;;;;;;;-0.47;64.38;100262.31;4914837;29;20062;-75
2023/12/02 10:48:40;;;;;;;10.13;7.75;;;;;;;-0.53;65.01;100255.50;4914485;29;20348;-75
2023/12/02 10:51:44;;;;;;;13.80;10.13;;;;;;;-0.50;65.07;100259.78;4914595;29;20055;-75
2023/12/02 10:54:50;;;;;;;11.68;8.73;;;;;;;-0.41;64.72;100248.53;4914446;29;20249;-75
2023/12/02 10:57:57;;;;;;;14.02;9.55;;;;;;;-0.30;64.28;100257.81;4914193;29;20070;-76
2023/12/02 11:01:07;;;;;;;16.50;10.38;;;;;;;-0.28;64.30;100248.38;4902629;29;20051;-75
2023/12/02 11:04:26;;;;;;;26.13;15.23;;;;;;;-0.47;65.39;100259.72;4914291;29;20073;-75
2023/12/02 11:07:32;;;;;;;13.35;9.20;;;;;;;-0.28;65.13;100261.22;4906247;29;20051;-76
2023/12/02 11:10:48;;;;;;;14.65;9.88;;;;;;;-0.19;64.55;100259.38;4914335;29;20047;-73
2023/12/02 11:13:56;;;;;;;12.02;8.93;;;;;;;-0.32;64.65;100262.13;4914146;29;20051;-74
2023/12/02 11:17:15;;;;;;;10.13;8.05;;;;;;;-0.98;65.76;100264.53;4913965;29;20142;-74
2023/12/02 11:20:31;;;;;;;12.10;8.13;;;;;;;-0.79;65.69;100268.63;4914055;29;20415;-73
2023/12/02 11:24:11;;;;;;;12.50;8.93;;;;;;;-0.47;65.74;100270.84;4914190;29;20072;-74
2023/12/02 11:27:34;;;;;;;14.15;9.20;;;;;;;-0.27;65.26;100273.19;4903142;29;20446;-74
2023/12/02 11:30:56;;;;;;;16.20;10.07;;;;;;;-0.49;66.22;100277.72;4912084;29;20395;-72
2023/12/02 11:34:53;;;;;;;10.52;7.72;;;;;;;-0.20;64.61;100276.53;4907449;29;20557;-74
2023/12/02 11:38:16;;;;;;;9.40;7.55;;;;;;;-0.45;65.48;100282.81;4842083;29;20048;-75
2023/12/02 11:41:39;;;;;;;10.65;8.25;;;;;;;-0.61;65.54;100282.13;4851319;29;20098;-75
2023/12/02 11:45:06;;;;;;;10.73;7.43;;;;;;;-0.40;65.25;100287.03;4856401;29;20045;-75
2023/12/02 11:48:28;;;;;;;12.45;8.60;;;;;;;-0.35;64.19;100295.56;4865040;29;20486;-75
2023/12/02 11:51:53;;;;;;;13.23;7.72;;;;;;;-0.61;64.29;100302.66;4898826;29;20430;-70
2023/12/02 11:55:07;;;;;;;10.38;8.18;;;;;;;-1.20;66.22;100313.47;4899482;29;20142;-79
2023/12/02 11:58:43;;;;;;;11.02;8.00;;;;;;;-1.11;66.16;100327.09;4898999;29;20063;-70
2023/12/02 12:02:17;;;;;;;11.40;8.40;;;;;;;-1.13;66.60;100328.81;4917166;29;20399;-70
2023/12/02 12:05:51;;;;;;;11.27;8.55;;;;;;;-0.85;66.53;100327.72;4906367;29;20505;-69
2023/12/02 12:09:27;;;;;;;9.63;7.30;;;;;;;-0.42;65.71;100324.72;4912860;29;20446;-71
2023/12/02 12:12:36;;;;;;;10.38;8.02;;;;;;;-0.34;65.17;100335.78;4917841;29;20095;-70
2023/12/02 12:15:42;;;;;;;9.82;7.38;;;;;;;-0.24;64.68;100344.25;4913719;29;20047;-70
2023/12/02 12:18:47;;;;;;;12.05;7.85;;;;;;;-0.18;64.65;100331.34;4892754;29;20326;-83
2023/12/02 12:21:54;;;;;;;9.15;7.30;;;;;;;-0.08;64.23;100340.63;4894830;29;20103;-72
2023/12/02 12:24:59;;;;;;;9.82;7.28;;;;;;;-0.56;65.83;100352.28;4915924;29;20047;-71
2023/12/02 12:28:03;;;;;;;9.48;7.82;;;;;;;-0.69;64.84;100353.28;4911595;29;20070;-72
2023/12/02 12:31:11;;;;;;;12.38;8.88;;;;;;;-0.61;65.18;100349.75;4916390;29;20131;-70
2023/12/02 12:34:16;;;;;;;13.40;9.43;;;;;;;-0.73;65.60;100355.88;4907249;29;20086;-72
2023/12/02 12:37:20;;;;;;;9.48;7.28;;;;;;;-0.46;64.95;100353.91;4913318;29;20102;-72
2023/12/02 12:40:27;;;;;;;9.70;7.68;;;;;;;-0.65;65.16;100370.34;4916124;29;20090;-71
2023/12/02 12:43:36;;;;;;;12.15;8.23;;;;;;;-0.64;65.35;100364.34;4916341;29;20421;-71
2023/12/02 12:46:44;;;;;;;15.60;12.48;;;;;;;-0.96;65.99;100370.59;4916160;29;20051;-71
2023/12/02 12:49:50;;;;;;;11.35;7.68;;;;;;;-1.42;67.23;100386.28;4916496;29;20106;-70
2023/12/02 12:52:59;;;;;;;12.45;9.60;;;;;;;-1.04;67.04;100385.19;4916597;29;20046;-70
2023/12/02 12:56:08;;;;;;;9.18;7.32;;;;;;;-1.13;66.27;100395.53;4916441;29;20414;-70
2023/12/02 12:59:17;;;;;;;8.20;6.32;;;;;;;-1.11;66.14;100401.50;4915782;29;20557;-70
2023/12/02 13:02:33;;;;;;;16.42;11.38;;;;;;;-1.29;66.50;100405.03;4906159;29;20061;-71
2023/12/02 13:05:49;;;;;;;8.25;6.30;;;;;;;-1.30;66.83;100393.06;4916323;29;20115;-71
2023/12/02 13:09:07;;;;;;;10.05;7.18;;;;;;;-0.98;66.20;100405.69;4916282;29;20059;-71
2023/12/02 13:12:28;;;;;;;10.50;7.40;;;;;;;-1.23;66.26;100405.84;4897487;29;20103;-71
2023/12/02 13:15:41;;;;;;;8.90;6.40;;;;;;;-1.12;67.84;100410.03;4897539;29;20054;-72
2023/12/02 13:18:46;;;;;;;7.75;5.88;;;;;;;-1.11;66.58;100409.22;4897367;29;20127;-71
2023/12/02 13:22:02;;;;;;;10.48;6.72;;;;;;;-0.92;67.43;100421.06;4897279;29;20052;-70
2023/12/02 13:25:24;;;;;;;11.85;8.50;;;;;;;-0.74;65.68;100420.91;4897502;29;20071;-72
2023/12/02 13:28:37;;;;;;;10.30;6.95;;;;;;;-0.71;65.52;100430.28;4897174;29;20051;-72
2023/12/02 13:31:42;;;;;;;13.10;8.23;;;;;;;-0.36;64.31;100431.72;4897438;29;20128;-72
2023/12/02 13:35:19;;;;;;;9.07;5.72;;;;;;;-0.14;63.47;100446.06;4896476;29;20131;-71
2023/12/02 13:38:55;;;;;;;9.30;7.18;;;;;;;-0.16;63.07;100455.53;4896847;29;20047;-73
2023/12/02 13:42:50;;;;;;;10.65;7.03;;;;;;;-0.62;64.80;100455.91;4905963;29;20454;-72
2023/12/02 13:52:10;;;;;;;10.57;7.18;;;;;;;-0.36;64.83;100468.53;4896486;29;20043;-71
2023/12/02 13:56:14;;;;;;;10.98;7.68;;;;;;;-0.90;65.08;100474.94;4901205;29;20107;-72
2023/12/02 14:00:05;;;;;;;14.30;10.77;;;;;;;-1.02;65.91;100480.97;4857038;29;20118;-72
2023/12/02 14:03:29;;;;;;;10.23;7.95;;;;;;;-0.75;64.69;100478.25;4836686;29;20547;-71
2023/12/02 14:07:13;;;;;;;10.80;8.05;;;;;;;-0.40;64.46;100487.41;4828463;29;20511;-71
2023/12/02 14:10:21;;;;;;;17.10;11.20;;;;;;;-0.58;64.11;100478.13;4872170;29;20086;-72
2023/12/02 14:14:18;;;;;;;18.38;12.18;;;;;;;-1.00;66.24;100499.78;4896637;29;20419;-71
2023/12/02 14:17:50;;;;;;;20.23;13.60;;;;;;;-0.54;64.83;100495.22;4896055;29;20075;-69
2023/12/02 14:21:13;;;;;;;11.43;8.52;;;;;;;-0.68;64.52;100503.88;4896255;29;20092;-68
2023/12/02 14:24:48;;;;;;;10.18;7.78;;;;;;;-0.78;65.04;100498.81;4896278;29;20100;-69
2023/12/02 14:27:58;;;;;;;13.68;8.27;;;;;;;-0.80;65.35;100497.97;4896160;29;20479;-69
2023/12/02 14:31:25;;;;;;;11.48;7.97;;;;;;;-1.10;65.27;100513.53;4896328;29;20058;-69
2023/12/02 14:34:53;;;;;;;9.57;7.30;;;;;;;-0.67;65.06;100515.84;4896009;29;20490;-67
2023/12/02 14:38:29;;;;;;;10.93;8.02;;;;;;;-0.46;64.38;100528.56;4896007;29;20070;-68
2023/12/02 14:42:12;;;;;;;10.10;8.03;;;;;;;-0.38;64.22;100523.34;4896035;29;20048;-69
2023/12/02 14:45:22;;;;;;;9.60;7.13;;;;;;;-0.25;64.43;100522.41;4895959;29;20279;-69
2023/12/02 14:48:29;;;;;;;10.77;7.72;;;;;;;-0.16;64.95;100535.19;4895911;29;20107;-69
2023/12/02 14:51:43;;;;;;;11.68;8.27;;;;;;;-0.21;63.94;100538.66;4895920;29;20047;-69
2023/12/02 14:54:46;;;;;;;10.43;7.30;;;;;;;-0.12;64.21;100546.31;4895866;29;20159;-69
2023/12/02 14:58:27;;;;;;;11.95;7.65;;;;;;;-0.04;64.85;100545.34;4896165;29;20090;-68
2023/12/02 15:01:44;;;;;;;13.02;8.20;;;;;;;-0.27;64.15;100545.53;4898694;29;20115;-69
2023/12/02 15:04:50;;;;;;;11.07;8.52;;;;;;;-0.03;64.02;100557.34;4902592;29;20139;-69
2023/12/02 15:07:58;;;;;;;10.40;7.18;;;;;;;0.03;63.78;100553.84;4903186;29;20089;-70
2023/12/02 15:11:03;;;;;;;11.98;7.60;;;;;;;0.04;63.91;100558.16;4903257;29;20055;-70
2023/12/02 15:14:07;;;;;;;9.90;7.20;;;;;;;-0.01;64.32;100570.19;4902620;29;20498;-70
2023/12/02 15:17:12;;;;;;;10.43;8.43;;;;;;;-0.16;64.34;100578.00;4902082;29;20471;-70
2023/12/02 15:20:29;;;;;;;11.75;7.97;;;;;;;-0.40;64.62;100586.75;4873952;29;20222;-70